Aeroporto :
LOGIN :

Iscrizione | Disclaimer

   EN    FR    IT 

 










Sommario :    VFR   VFR Marginale   IFR   IFR Intensivo   IFR Molto Intensivo
Visibilità : 
Base nubi : 
>= 8 km
>= 3000ft
5 / 8 km
1000 / 3000 ft
1500m / 5 km
500 / 1000 ft
800 / 1500m
200 / 500 ft
< 800m
< 200 ft
Simboli :   Temporali  Nebbia  Neve Forte  Precipitazioni Forti  Vento > 20 kt
SIGMETs :   Varie  Temporali  Ghiacco  Turbolenza  Onda orograficha  Ceneri Vulcaniche






- Altitudine del aeroporto : 386 ft
- Codice IATA : QOE


ETNN - Nörvenich Airforce Base

ULTIMO METAR :
  • 212220Z 20002KT 9999 M03/M05 Q1038 BLU+

METARs OBSOLETI :
  • 212120Z 19002KT 9999 M03/M04 Q1039 BLU+
  • 212020Z 19002KT 9999 M03/M03 Q1039 BLU+
  • 211920Z 28003KT 9999 M03/M04 Q1039 BLU+

TAF AMD TAF ETNN
Valido dal 21 a 15 ore il 22 a 00 ore UTC


211707Z 2115/2124 VRB03KT 9999 NSW FEW260
BECMG 2116/2118 VRB02KT 5000 BR SKC
BECMG 2118/2119 VRB02KT 3000 BR SKC
BECMG 2119/2120 VRB01KT 0200 FZFG VV001 CANCEL BY ETGL



MetMap, La meteo Aeronautica in un colpo d'occhio ! - Copyright ORBIFLY Dicembre 2007 - Disclaimer

ORBIFLY MET'MAP TEAM :

Programmazione e sviluppo : Alexandra Zaïnal
Concezione : Baudouin d'Aumeries
Aiuto per la programmazione : Marc-Olivier Méhu
Supporto tecnico e logistico : Manuel Goepfert
Aiuto per la traduzione : Arnaldo La Scala

Contatto : metmap@orbifly.com




FONTI E CREDITI :

   NOAA